Time;durP1;ratioP1;P1;durP2;ratioP2;P2;SDS_P1;SDS_P2;PMS_P1;PMS_P2;Temp;Humidity;BMP_temperature;BMP_pressure;BME280_temperature;BME280_humidity;BME280_pressure;Samples;Min_cycle;Max_cycle;Signal;HPM_P1;HPM_P2
2021/04/06 00:01:24;;;;;;;2.08;0.80;;;18.00;49.00;;;;;;4901832;29;20210;-69
2021/04/06 00:03:50;;;;;;;1.73;1.02;;;18.00;49.00;;;;;;4902522;29;20172;-69
2021/04/06 00:06:15;;;;;;;1.17;0.88;;;18.00;49.10;;;;;;4886711;29;20185;-71
2021/04/06 00:08:41;;;;;;;2.47;0.80;;;18.00;49.10;;;;;;4885876;29;20195;-72
2021/04/06 00:11:07;;;;;;;2.80;1.42;;;18.00;49.10;;;;;;4886555;29;20232;-70
2021/04/06 00:13:34;;;;;;;1.30;0.85;;;18.00;49.00;;;;;;4870811;29;20659;-72
2021/04/06 00:16:01;;;;;;;1.48;1.00;;;17.90;49.00;;;;;;4886263;29;20177;-72
2021/04/06 00:18:27;;;;;;;1.92;1.10;;;17.90;49.10;;;;;;4886580;29;20191;-70
2021/04/06 00:20:52;;;;;;;1.00;0.82;;;17.90;49.10;;;;;;4902068;29;20176;-73
2021/04/06 00:23:19;;;;;;;1.52;0.80;;;17.90;49.70;;;;;;4885989;29;20247;-69
2021/04/06 00:25:48;;;;;;;1.15;0.80;;;17.90;49.10;;;;;;4886417;29;20562;-73
2021/04/06 00:28:17;;;;;;;1.63;0.90;;;17.90;49.10;;;;;;4902275;29;20633;-69
2021/04/06 00:30:42;;;;;;;3.35;1.20;;;17.80;49.10;;;;;;4900976;29;20247;-70
2021/04/06 00:33:18;;;;;;;2.03;1.00;;;17.80;49.10;;;;;;4886237;29;20259;-69
2021/04/06 00:35:43;;;;;;;2.47;0.85;;;17.80;49.10;;;;;;4886448;29;20168;-71
2021/04/06 00:38:11;;;;;;;1.13;0.80;;;17.80;49.10;;;;;;4869825;29;20184;-74
2021/04/06 00:40:42;;;;;;;1.70;0.80;;;17.80;49.10;;;;;;4885986;29;20327;-74
2021/04/06 00:43:08;;;;;;;1.33;0.80;;;17.80;49.80;;;;;;4902332;29;20327;-72
2021/04/06 00:45:36;;;;;;;1.80;1.00;;;17.80;49.10;;;;;;4900681;29;20671;-74
2021/04/06 00:48:03;;;;;;;1.25;0.80;;;17.80;49.80;;;;;;4886094;29;20194;-69
2021/04/06 00:50:33;;;;;;;1.98;0.80;;;17.80;49.10;;;;;;4869666;29;20227;-69
2021/04/06 00:52:58;;;;;;;1.85;0.80;;;17.80;49.20;;;;;;4901699;29;20204;-70
2021/04/06 00:55:24;;;;;;;1.60;1.08;;;17.70;49.10;;;;;;4901168;29;20215;-70
2021/04/06 00:57:49;;;;;;;1.27;0.80;;;17.70;49.20;;;;;;4900832;29;20276;-70
2021/04/06 01:00:22;;;;;;;1.40;0.73;;;17.70;49.20;;;;;;4885898;29;20231;-69
2021/04/06 01:03:15;;;;;;;1.42;0.75;;;17.70;49.20;;;;;;4902226;29;20263;-69
2021/04/06 01:06:14;;;;;;;1.75;0.85;;;17.70;49.20;;;;;;4886418;29;20311;-70
2021/04/06 01:08:39;;;;;;;1.98;1.05;;;17.70;49.20;;;;;;4869150;29;20283;-71
2021/04/06 01:11:08;;;;;;;1.75;1.02;;;17.70;49.20;;;;;;4885444;29;20314;-72
2021/04/06 01:13:34;;;;;;;2.25;1.02;;;17.70;49.20;;;;;;4900841;29;20559;-72
2021/04/06 01:16:00;;;;;;;1.67;0.52;;;17.70;49.20;;;;;;4900930;29;20180;-73
2021/04/06 01:18:26;;;;;;;2.55;0.98;;;17.60;49.20;;;;;;4900792;29;20211;-72
2021/04/06 01:20:54;;;;;;;1.42;0.90;;;17.60;49.20;;;;;;4884820;29;20207;-74
2021/04/06 01:23:19;;;;;;;1.20;0.68;;;17.60;49.20;;;;;;4900965;29;20175;-70
2021/04/06 01:25:49;;;;;;;1.92;0.93;;;17.60;49.20;;;;;;4900297;29;20592;-72
2021/04/06 01:28:15;;;;;;;2.72;1.15;;;17.60;49.20;;;;;;4886329;29;20183;-69
2021/04/06 01:30:45;;;;;;;1.55;1.10;;;17.60;49.30;;;;;;4884992;29;20219;-69
2021/04/06 01:33:14;;;;;;;1.38;0.80;;;17.50;49.30;;;;;;4885661;29;20215;-69
2021/04/06 01:35:51;;;;;;;1.92;1.17;;;17.60;49.30;;;;;;4885320;29;20172;-70
2021/04/06 01:38:17;;;;;;;1.48;0.75;;;17.60;49.90;;;;;;4901547;29;20172;-69
2021/04/06 01:40:43;;;;;;;3.47;1.10;;;17.50;49.30;;;;;;4899867;29;20656;-72
2021/04/06 01:43:09;;;;;;;1.48;0.95;;;17.50;49.20;;;;;;4884928;29;20240;-72
2021/04/06 01:45:43;;;;;;;1.20;0.60;;;17.50;49.20;;;;;;4869325;29;20535;-71
2021/04/06 01:48:09;;;;;;;2.50;1.20;;;17.50;49.20;;;;;;4916782;29;20186;-69
2021/04/06 01:50:35;;;;;;;2.35;1.00;;;17.50;49.20;;;;;;4884689;29;20310;-69
2021/04/06 01:53:00;;;;;;;1.20;0.80;;;17.50;49.20;;;;;;4884873;29;20247;-70
2021/04/06 01:55:33;;;;;;;1.92;0.75;;;17.50;49.20;;;;;;4899403;29;20236;-71
2021/04/06 01:57:59;;;;;;;1.40;0.88;;;17.50;49.20;;;;;;4900618;29;20616;-69
2021/04/06 02:02:56;;;;;;;1.42;0.80;;;17.50;49.20;;;;;;4916677;29;20636;-70
2021/04/06 02:05:24;;;;;;;3.05;1.33;;;17.40;49.20;;;;;;4885236;29;20210;-69
2021/04/06 02:07:50;;;;;;;1.20;0.80;;;17.40;49.20;;;;;;4899544;29;20275;-69
2021/04/06 02:10:15;;;;;;;1.30;0.90;;;17.40;49.20;;;;;;4884730;29;20286;-70
2021/04/06 02:12:44;;;;;;;1.73;0.82;;;17.40;49.20;;;;;;4884198;29;20171;-72
2021/04/06 02:15:11;;;;;;;1.58;1.00;;;17.40;49.20;;;;;;4899437;29;20188;-71
2021/04/06 02:17:50;;;;;;;1.92;1.10;;;17.40;49.20;;;;;;4884061;29;20551;-73
2021/04/06 02:20:21;;;;;;;1.63;0.82;;;17.40;49.20;;;;;;4899932;29;20179;-69
2021/04/06 02:23:03;;;;;;;2.42;1.20;;;17.40;49.20;;;;;;4883949;29;20172;-71
2021/04/06 02:25:29;;;;;;;1.90;0.98;;;17.40;49.20;;;;;;4884203;29;20607;-72
2021/04/06 02:27:55;;;;;;;2.50;0.73;;;17.30;49.20;;;;;;4868965;29;20643;-70
2021/04/06 02:30:39;;;;;;;1.60;1.02;;;17.30;49.20;;;;;;4898923;29;20212;-70
2021/04/06 02:33:05;;;;;;;1.38;0.95;;;17.30;49.20;;;;;;4873259;29;20179;-70
2021/04/06 02:35:31;;;;;;;3.38;1.25;;;17.30;49.30;;;;;;4883755;29;20547;-71
2021/04/06 02:37:56;;;;;;;1.83;1.00;;;17.30;49.20;;;;;;4883591;29;20234;-74
2021/04/06 02:40:25;;;;;;;3.22;1.05;;;17.30;49.30;;;;;;4899373;29;20192;-73
2021/04/06 02:42:54;;;;;;;1.80;0.93;;;17.30;49.30;;;;;;4884725;29;20624;-73
2021/04/06 02:45:29;;;;;;;1.83;1.00;;;17.30;49.30;;;;;;4883640;29;20180;-70
2021/04/06 02:48:05;;;;;;;1.75;1.00;;;17.20;49.20;;;;;;4916488;29;20182;-70
2021/04/06 02:50:30;;;;;;;2.08;1.10;;;17.30;49.40;;;;;;4898776;29;20671;-72
2021/04/06 02:52:56;;;;;;;1.77;0.90;;;17.20;49.30;;;;;;4899453;29;20218;-68
2021/04/06 02:55:22;;;;;;;1.67;0.88;;;17.20;49.30;;;;;;4883716;29;20643;-71
2021/04/06 02:57:54;;;;;;;2.20;1.13;;;17.20;49.30;;;;;;4898913;29;20167;-71
2021/04/06 03:00:32;;;;;;;3.05;1.10;;;17.20;49.40;;;;;;4899252;29;20176;-71
2021/04/06 03:02:59;;;;;;;1.98;1.02;;;17.20;49.40;;;;;;4916180;29;20180;-68
2021/04/06 03:05:32;;;;;;;2.95;1.23;;;17.20;49.50;;;;;;4898741;29;20292;-69
2021/04/06 03:07:59;;;;;;;2.13;1.15;;;17.20;49.40;;;;;;4884487;29;20187;-71
2021/04/06 03:10:25;;;;;;;2.22;1.17;;;17.20;49.50;;;;;;4899066;29;20235;-70
2021/04/06 03:12:50;;;;;;;1.70;0.93;;;17.20;49.50;;;;;;4898792;29;20194;-73
2021/04/06 03:15:23;;;;;;;1.48;0.80;;;17.20;50.20;;;;;;4883880;29;20184;-73
2021/04/06 03:17:49;;;;;;;2.45;1.23;;;17.10;49.50;;;;;;4899420;29;20632;-71
2021/04/06 03:20:17;;;;;;;2.30;1.20;;;17.10;49.60;;;;;;4898957;29;20251;-72
2021/04/06 03:22:42;;;;;;;1.92;1.30;;;17.10;49.50;;;;;;4899105;29;20176;-73
2021/04/06 03:25:10;;;;;;;2.40;1.13;;;17.10;49.50;;;;;;4883636;29;20554;-71
2021/04/06 03:27:36;;;;;;;2.03;1.00;;;17.10;49.50;;;;;;4899089;29;20180;-71
2021/04/06 03:30:02;;;;;;;3.78;1.30;;;17.10;50.10;;;;;;4916055;29;20221;-68
2021/04/06 03:32:27;;;;;;;1.65;1.00;;;17.10;49.50;;;;;;4902023;29;20172;-69
2021/04/06 03:34:53;;;;;;;2.05;1.00;;;17.10;49.50;;;;;;4903289;29;20258;-71
2021/04/06 03:37:20;;;;;;;2.38;0.95;;;17.10;49.50;;;;;;4902746;29;20223;-69
2021/04/06 03:39:46;;;;;;;2.42;1.23;;;17.00;49.40;;;;;;4871426;29;20235;-74
2021/04/06 03:42:26;;;;;;;1.35;1.00;;;17.00;49.40;;;;;;4902800;29;20172;-73
2021/04/06 03:45:04;;;;;;;3.15;1.38;;;17.00;49.50;;;;;;4888200;29;20628;-70
2021/04/06 03:47:53;;;;;;;1.60;1.20;;;17.00;50.10;;;;;;4901695;29;20235;-69
2021/04/06 03:50:51;;;;;;;2.67;0.98;;;17.00;49.50;;;;;;4919648;29;20283;-70
2021/04/06 03:53:19;;;;;;;1.13;0.80;;;17.00;49.50;;;;;;4871780;29;20188;-69
2021/04/06 03:56:03;;;;;;;1.95;1.15;;;17.00;49.50;;;;;;4902972;29;20589;-74
2021/04/06 03:58:33;;;;;;;1.95;1.00;;;17.00;49.40;;;;;;4887787;29;20255;-71
2021/04/06 04:00:59;;;;;;;2.72;1.00;;;17.00;49.50;;;;;;4902770;29;20255;-69
2021/04/06 04:03:25;;;;;;;2.15;1.30;;;17.00;49.60;;;;;;4902112;29;20632;-72
2021/04/06 04:05:50;;;;;;;1.75;1.02;;;17.00;50.20;;;;;;4902347;29;20180;-70
2021/04/06 04:08:16;;;;;;;2.03;1.00;;;16.90;50.10;;;;;;4870683;29;20203;-69
2021/04/06 04:10:41;;;;;;;2.17;1.00;;;16.90;49.50;;;;;;4901757;29;20223;-74
2021/04/06 04:13:07;;;;;;;1.83;1.08;;;16.90;49.50;;;;;;4871182;29;20188;-74
2021/04/06 04:15:33;;;;;;;1.75;0.90;;;16.90;50.10;;;;;;4885782;29;20235;-74
2021/04/06 04:17:58;;;;;;;2.83;1.13;;;16.90;49.50;;;;;;4886675;29;20176;-69
2021/04/06 04:20:24;;;;;;;1.77;0.85;;;16.90;49.50;;;;;;4902179;29;20231;-69
2021/04/06 04:22:50;;;;;;;2.17;1.05;;;16.90;49.50;;;;;;4901257;29;20187;-72
2021/04/06 04:25:16;;;;;;;2.13;1.05;;;16.90;49.50;;;;;;4901933;29;20199;-70
2021/04/06 04:27:42;;;;;;;2.00;0.90;;;16.90;49.50;;;;;;4901830;29;20632;-72
2021/04/06 04:30:09;;;;;;;1.55;0.85;;;16.90;49.50;;;;;;4885846;29;20687;-69
2021/04/06 04:32:34;;;;;;;2.05;1.33;;;16.80;49.50;;;;;;4901843;29;20176;-70
2021/04/06 04:35:00;;;;;;;1.30;0.80;;;16.80;49.50;;;;;;4886125;29;20264;-70
2021/04/06 04:37:26;;;;;;;2.22;0.98;;;16.80;49.50;;;;;;4901012;29;20176;-69
2021/04/06 04:39:51;;;;;;;2.20;0.75;;;16.80;49.50;;;;;;4886237;29;20180;-71
2021/04/06 04:42:17;;;;;;;2.10;0.95;;;16.80;49.50;;;;;;4918425;29;20651;-71
2021/04/06 04:44:42;;;;;;;1.75;0.95;;;16.80;49.50;;;;;;4917590;29;20243;-71
2021/04/06 04:47:08;;;;;;;2.58;0.90;;;16.80;49.50;;;;;;4901568;29;20187;-70
2021/04/06 04:49:34;;;;;;;2.03;0.82;;;16.80;49.50;;;;;;4869720;29;20223;-70
2021/04/06 04:51:59;;;;;;;1.92;1.00;;;16.80;49.60;;;;;;4901392;29;20187;-70
2021/04/06 04:54:25;;;;;;;1.58;0.80;;;16.70;49.50;;;;;;4885711;29;20194;-69
2021/04/06 04:56:50;;;;;;;2.85;0.95;;;16.70;49.50;;;;;;4900913;29;20287;-70
2021/04/06 04:59:16;;;;;;;1.70;0.95;;;16.70;49.50;;;;;;4885708;29;20207;-71
2021/04/06 05:01:42;;;;;;;2.22;1.00;;;16.70;49.50;;;;;;4901110;29;20186;-69
2021/04/06 05:04:07;;;;;;;1.13;0.82;;;16.70;49.50;;;;;;4885112;29;20180;-70
2021/04/06 05:06:33;;;;;;;1.88;0.95;;;16.70;49.50;;;;;;4900989;29;20271;-73
2021/04/06 05:08:58;;;;;;;1.90;0.88;;;16.70;49.60;;;;;;4901234;29;20212;-73
2021/04/06 05:11:24;;;;;;;1.42;0.80;;;16.70;49.50;;;;;;4917121;29;20569;-73
2021/04/06 05:13:53;;;;;;;1.42;1.15;;;16.80;49.50;;;;;;4885560;29;20179;-71
2021/04/06 05:16:19;;;;;;;1.15;0.77;;;16.80;49.70;;;;;;4885484;29;20243;-71
2021/04/06 05:18:44;;;;;;;2.15;1.13;;;16.90;49.60;;;;;;4900548;29;20168;-69
2021/04/06 05:21:10;;;;;;;0.80;0.80;;;17.00;49.50;;;;;;4901010;29;20187;-70
2021/04/06 05:23:36;;;;;;;1.17;0.77;;;17.20;49.30;;;;;;4900617;29;20624;-73
2021/04/06 05:26:01;;;;;;;1.33;1.00;;;17.40;49.20;;;;;;4900301;29;20532;-72
2021/04/06 05:28:27;;;;;;;1.90;0.90;;;17.60;48.90;;;;;;4900707;29;20263;-70
2021/04/06 05:30:52;;;;;;;1.48;0.80;;;17.70;49.20;;;;;;4917605;29;20211;-69
2021/04/06 05:33:18;;;;;;;1.13;0.60;;;17.80;48.30;;;;;;4917179;29;20610;-70
2021/04/06 05:35:44;;;;;;;1.50;1.05;;;17.80;48.30;;;;;;4917621;29;20176;-71
2021/04/06 05:38:09;;;;;;;1.20;0.50;;;17.80;48.20;;;;;;4900667;29;20215;-72
2021/04/06 05:40:35;;;;;;;1.08;0.73;;;17.90;48.80;;;;;;4916714;29;20642;-70
2021/04/06 05:43:03;;;;;;;2.95;0.90;;;17.90;48.20;;;;;;4917331;29;20222;-71
2021/04/06 05:45:33;;;;;;;1.45;0.60;;;17.90;48.00;;;;;;4900215;29;20190;-70
2021/04/06 05:47:59;;;;;;;1.80;0.95;;;18.00;47.90;;;;;;4900375;29;20178;-69
2021/04/06 05:50:24;;;;;;;0.85;0.63;;;18.00;48.00;;;;;;4884738;29;20291;-66
2021/04/06 05:52:50;;;;;;;2.33;0.85;;;18.10;48.60;;;;;;4869060;29;20586;-67
2021/04/06 05:55:16;;;;;;;3.30;1.00;;;18.10;48.00;;;;;;4883596;29;20176;-72
2021/04/06 05:57:41;;;;;;;1.38;0.88;;;18.20;48.30;;;;;;4916893;29;20232;-64
2021/04/06 06:00:08;;;;;;;3.08;1.10;;;18.20;48.70;;;;;;4916566;29;20198;-64
2021/04/06 06:02:35;;;;;;;1.88;0.90;;;18.20;48.00;;;;;;4916848;29;20703;-64
2021/04/06 06:05:00;;;;;;;2.20;1.20;;;18.10;48.60;;;;;;4917002;29;20184;-69
2021/04/06 06:07:26;;;;;;;2.85;1.05;;;18.10;48.20;;;;;;4883907;29;20202;-64
2021/04/06 06:09:52;;;;;;;3.03;1.20;;;18.10;48.30;;;;;;4916757;29;20234;-64
2021/04/06 06:12:18;;;;;;;3.72;1.30;;;17.90;48.70;;;;;;4900250;29;20255;-63
2021/04/06 06:14:48;;;;;;;1.40;1.13;;;18.00;48.70;;;;;;4884061;29;20311;-63
2021/04/06 06:17:24;;;;;;;2.35;1.10;;;18.00;48.80;;;;;;4884779;29;20187;-63
2021/04/06 06:19:53;;;;;;;4.45;1.50;;;18.00;48.90;;;;;;4868766;29;20323;-72
2021/04/06 06:22:23;;;;;;;2.50;1.58;;;18.00;48.90;;;;;;4868423;29;20199;-70
2021/04/06 06:24:50;;;;;;;4.68;1.50;;;18.00;48.90;;;;;;4899900;29;20194;-67
2021/04/06 06:27:43;;;;;;;5.82;1.98;;;18.00;49.20;;;;;;4916855;29;20628;-72
2021/04/06 06:30:36;;;;;;;2.33;1.55;;;18.10;49.30;;;;;;4901125;29;20582;-66
2021/04/06 06:33:19;;;;;;;7.22;1.23;;;18.10;49.30;;;;;;4900908;29;20172;-68
2021/04/06 06:35:51;;;;;;;5.93;1.45;;;18.10;49.80;;;;;;4916100;29;20172;-65
2021/04/06 06:38:24;;;;;;;17.85;2.22;;;18.00;49.60;;;;;;4916525;29;20255;-72
2021/04/06 06:40:51;;;;;;;10.05;2.20;;;18.00;50.30;;;;;;4899858;29;20183;-65
2021/04/06 06:43:18;;;;;;;6.25;1.60;;;17.90;50.20;;;;;;4899351;29;20274;-68
2021/04/06 06:45:45;;;;;;;7.28;1.63;;;17.80;50.30;;;;;;4916670;29;20176;-68
2021/04/06 06:48:10;;;;;;;6.55;1.60;;;17.80;50.50;;;;;;4883756;29;20184;-75
2021/04/06 06:50:49;;;;;;;3.95;1.65;;;17.90;50.30;;;;;;4883045;29;20230;-71
2021/04/06 06:53:28;;;;;;;4.80;1.77;;;17.90;50.20;;;;;;4883889;29;20176;-70
2021/04/06 06:55:54;;;;;;;5.07;1.20;;;17.90;50.00;;;;;;4901368;29;20171;-71
2021/04/06 06:58:19;;;;;;;3.72;1.50;;;17.90;50.00;;;;;;4915681;29;20590;-70
2021/04/06 07:00:52;;;;;;;2.47;1.13;;;17.90;49.90;;;;;;4868304;29;20175;-78
2021/04/06 07:03:18;;;;;;;7.32;1.58;;;17.90;49.90;;;;;;4883920;29;20167;-70
2021/04/06 07:05:43;;;;;;;5.38;1.33;;;17.80;49.90;;;;;;4916708;29;20589;-73
2021/04/06 07:08:09;;;;;;;4.25;1.40;;;17.80;49.90;;;;;;4903356;29;20644;-71
2021/04/06 07:10:35;;;;;;;3.83;1.42;;;17.80;49.90;;;;;;4902130;29;20227;-70
2021/04/06 07:13:17;;;;;;;3.00;1.27;;;17.80;49.80;;;;;;4920188;29;20176;-71
2021/04/06 07:15:43;;;;;;;2.72;1.15;;;17.80;49.80;;;;;;4888361;29;20258;-76
2021/04/06 07:18:10;;;;;;;6.50;1.65;;;17.90;49.60;;;;;;4887303;29;20182;-76
2021/04/06 07:20:41;;;;;;;6.28;1.55;;;18.00;49.50;;;;;;4919882;29;20636;-75
2021/04/06 07:23:12;;;;;;;3.15;1.48;;;18.00;50.00;;;;;;4903190;29;20255;-71
2021/04/06 07:25:41;;;;;;;4.93;1.60;;;17.90;50.10;;;;;;4886913;29;20180;-74
2021/04/06 07:28:06;;;;;;;3.08;1.38;;;17.90;50.10;;;;;;4872044;29;20224;-70
2021/04/06 07:30:32;;;;;;;3.17;1.08;;;17.90;49.40;;;;;;4887381;29;20302;-75
2021/04/06 07:32:58;;;;;;;2.30;1.20;;;17.90;49.40;;;;;;4902287;29;20187;-72
2021/04/06 07:35:24;;;;;;;3.90;1.33;;;17.90;49.30;;;;;;4902756;29;20171;-72
2021/04/06 07:37:50;;;;;;;3.55;1.27;;;17.90;49.30;;;;;;4903012;29;20180;-73
2021/04/06 07:40:18;;;;;;;2.55;1.20;;;17.90;49.30;;;;;;4902197;29;20546;-75
2021/04/06 07:42:45;;;;;;;3.67;1.48;;;18.00;49.40;;;;;;4903293;29;20583;-71
2021/04/06 07:45:30;;;;;;;3.65;0.90;;;18.00;49.30;;;;;;4887347;29;20176;-72
2021/04/06 07:47:56;;;;;;;2.33;1.30;;;18.10;49.30;;;;;;4919395;29;20577;-70
2021/04/06 07:50:41;;;;;;;3.55;1.23;;;18.00;49.20;;;;;;4886970;29;20211;-70
2021/04/06 07:53:35;;;;;;;2.78;1.45;;;18.10;49.20;;;;;;4918991;29;20594;-73
2021/04/06 07:56:01;;;;;;;1.95;0.93;;;18.10;49.20;;;;;;4874816;29;20195;-71
2021/04/06 07:58:43;;;;;;;3.47;1.05;;;18.10;49.10;;;;;;4919015;29;20178;-75
2021/04/06 08:01:08;;;;;;;4.22;1.35;;;18.10;49.10;;;;;;4918747;29;20179;-71
2021/04/06 08:03:49;;;;;;;2.40;1.02;;;18.00;49.20;;;;;;4886525;29;20642;-71
2021/04/06 08:06:19;;;;;;;2.15;1.05;;;18.00;49.40;;;;;;4919462;29;20227;-71
2021/04/06 08:08:44;;;;;;;1.73;1.20;;;18.00;49.50;;;;;;4901619;29;20279;-71
2021/04/06 08:11:10;;;;;;;1.75;1.27;;;18.00;49.50;;;;;;4902021;29;20779;-70
2021/04/06 08:13:36;;;;;;;1.67;1.00;;;18.00;49.20;;;;;;4901246;29;20168;-75
2021/04/06 08:16:18;;;;;;;1.85;0.98;;;18.00;49.10;;;;;;4918996;29;20172;-71
2021/04/06 08:18:53;;;;;;;2.90;1.20;;;18.10;49.20;;;;;;4902183;29;20198;-72
2021/04/06 08:21:20;;;;;;;2.30;1.30;;;18.00;49.20;;;;;;4918324;29;20183;-72
2021/04/06 08:23:47;;;;;;;2.40;1.10;;;18.10;49.20;;;;;;4918791;29;20172;-73
2021/04/06 08:26:25;;;;;;;2.42;0.85;;;18.10;49.20;;;;;;4901938;29;20255;-70
2021/04/06 08:28:50;;;;;;;1.45;0.80;;;18.10;49.20;;;;;;4901223;29;20199;-74
2021/04/06 08:31:29;;;;;;;1.90;1.05;;;18.10;49.10;;;;;;4902019;29;20259;-70
2021/04/06 08:34:15;;;;;;;2.45;1.08;;;18.10;49.10;;;;;;4901814;29;20176;-72
2021/04/06 08:36:41;;;;;;;1.95;1.00;;;18.10;49.00;;;;;;4903700;29;20183;-72
2021/04/06 08:39:06;;;;;;;1.50;0.70;;;18.20;49.10;;;;;;4901655;29;20184;-70
2021/04/06 08:41:33;;;;;;;1.65;0.77;;;18.10;49.10;;;;;;4870657;29;20662;-71
2021/04/06 08:44:01;;;;;;;2.60;1.02;;;17.90;49.30;;;;;;4885338;29;20175;-69
2021/04/06 08:46:35;;;;;;;2.03;1.17;;;17.90;49.40;;;;;;4885901;29;20172;-73
2021/04/06 08:49:01;;;;;;;1.95;0.75;;;17.80;49.40;;;;;;4902155;29;20222;-69
2021/04/06 08:51:27;;;;;;;2.55;0.90;;;17.80;49.60;;;;;;4885752;29;20176;-68
2021/04/06 08:53:56;;;;;;;3.83;1.30;;;17.80;49.60;;;;;;4901197;29;20184;-72
2021/04/06 08:56:23;;;;;;;2.90;1.05;;;17.80;49.60;;;;;;4900597;29;20199;-69
2021/04/06 08:58:49;;;;;;;2.22;1.10;;;17.90;49.50;;;;;;4886168;29;20720;-71
2021/04/06 09:01:14;;;;;;;3.13;1.27;;;18.00;49.30;;;;;;4918334;29;20263;-69
2021/04/06 09:03:40;;;;;;;2.75;0.98;;;18.00;49.30;;;;;;4917450;29;20183;-73
2021/04/06 09:06:10;;;;;;;1.67;0.88;;;18.00;49.30;;;;;;4901299;29;20183;-70
2021/04/06 09:08:53;;;;;;;2.22;0.88;;;18.00;49.30;;;;;;4901024;29;20168;-70
2021/04/06 09:11:20;;;;;;;3.20;1.00;;;18.00;49.30;;;;;;4897037;29;20216;-70
2021/04/06 09:13:48;;;;;;;2.38;1.10;;;18.10;49.20;;;;;;4899055;29;20201;-71
2021/04/06 09:16:13;;;;;;;2.45;1.02;;;18.20;49.20;;;;;;4897910;29;20180;-69
2021/04/06 09:18:39;;;;;;;2.72;1.25;;;18.20;49.10;;;;;;4898250;29;20707;-72
2021/04/06 09:21:08;;;;;;;1.17;0.70;;;18.20;49.10;;;;;;4897863;29;20176;-70
2021/04/06 09:23:35;;;;;;;1.52;0.88;;;18.20;49.10;;;;;;4897649;29;20260;-71
2021/04/06 09:26:05;;;;;;;2.08;0.88;;;18.20;49.10;;;;;;4881424;29;20196;-69
2021/04/06 09:28:30;;;;;;;1.13;0.90;;;18.20;49.10;;;;;;4897708;29;20524;-68
2021/04/06 09:30:56;;;;;;;2.00;1.00;;;18.20;49.00;;;;;;4898113;29;20216;-63
2021/04/06 09:33:22;;;;;;;2.67;1.00;;;18.20;49.00;;;;;;4898520;29;20181;-69
2021/04/06 09:35:49;;;;;;;1.48;0.85;;;18.20;49.00;;;;;;4897231;29;20645;-65
2021/04/06 09:38:23;;;;;;;0.95;0.60;;;18.20;49.00;;;;;;4897047;29;20882;-67
2021/04/06 09:40:48;;;;;;;2.15;1.00;;;18.20;48.90;;;;;;4897684;29;20169;-64
2021/04/06 09:43:14;;;;;;;1.42;0.90;;;18.30;48.90;;;;;;4897406;29;20180;-67
2021/04/06 09:45:40;;;;;;;1.38;0.75;;;18.20;48.80;;;;;;4880911;29;20173;-64
2021/04/06 09:48:06;;;;;;;2.03;1.10;;;18.20;48.90;;;;;;4881714;29;20165;-66
2021/04/06 09:50:32;;;;;;;1.65;0.70;;;18.20;49.10;;;;;;4897057;29;20355;-67
2021/04/06 09:52:57;;;;;;;2.65;0.77;;;18.10;49.20;;;;;;4896668;29;20259;-68
2021/04/06 09:55:24;;;;;;;2.50;1.02;;;18.00;49.40;;;;;;4881229;29;20177;-65
2021/04/06 09:57:53;;;;;;;2.33;0.90;;;17.80;49.40;;;;;;4897256;29;20168;-70
2021/04/06 10:00:20;;;;;;;2.95;0.93;;;17.80;49.50;;;;;;4896416;29;20183;-68
2021/04/06 10:03:06;;;;;;;3.00;0.90;;;17.70;49.40;;;;;;4898322;29;20267;-74
2021/04/06 10:05:32;;;;;;;4.15;1.08;;;17.80;49.40;;;;;;4897825;29;20191;-68
2021/04/06 10:07:58;;;;;;;2.75;0.80;;;17.90;49.30;;;;;;4880822;29;20535;-69
2021/04/06 10:10:26;;;;;;;3.03;1.05;;;18.00;49.20;;;;;;4896469;29;20330;-72
2021/04/06 10:12:52;;;;;;;1.38;0.80;;;18.10;49.10;;;;;;4865818;29;20220;-68
2021/04/06 10:15:22;;;;;;;3.83;0.95;;;18.10;49.00;;;;;;4897275;29;20211;-69
2021/04/06 10:17:48;;;;;;;5.75;1.15;;;18.20;49.00;;;;;;4865826;29;20204;-69
2021/04/06 10:20:35;;;;;;;4.55;1.00;;;18.30;49.00;;;;;;4877834;29;20677;-67
2021/04/06 10:23:01;;;;;;;3.58;1.00;;;18.30;49.00;;;;;;4859942;29;20673;-68
2021/04/06 10:25:28;;;;;;;2.75;1.17;;;18.30;48.90;;;;;;4880057;29;20198;-71
2021/04/06 10:27:54;;;;;;;3.15;0.95;;;18.30;48.90;;;;;;4865077;29;20343;-68
2021/04/06 10:30:46;;;;;;;3.13;1.02;;;18.30;49.10;;;;;;4897467;29;20215;-70
2021/04/06 10:33:19;;;;;;;2.05;1.20;;;18.20;49.30;;;;;;4887555;29;20757;-69
2021/04/06 10:35:49;;;;;;;1.48;0.77;;;18.20;49.30;;;;;;4865480;29;20588;-72
2021/04/06 10:38:29;;;;;;;2.45;1.00;;;18.30;49.30;;;;;;4880602;29;20219;-72
2021/04/06 10:40:59;;;;;;;2.45;1.17;;;18.40;49.10;;;;;;4880767;29;20235;-64
2021/04/06 10:43:25;;;;;;;1.58;0.90;;;18.30;49.20;;;;;;4880120;29;20173;-66
2021/04/06 10:45:58;;;;;;;3.38;0.93;;;18.20;49.30;;;;;;4865487;29;20181;-63
2021/04/06 10:48:25;;;;;;;5.78;1.00;;;18.20;49.30;;;;;;4879930;29;20183;-63
2021/04/06 10:50:55;;;;;;;2.53;0.93;;;18.20;49.20;;;;;;4897486;29;20220;-62
2021/04/06 10:53:32;;;;;;;2.97;1.08;;;18.20;49.10;;;;;;4881347;29;20220;-63
2021/04/06 10:56:09;;;;;;;1.95;0.80;;;18.20;48.90;;;;;;4864996;29;20791;-63
2021/04/06 10:58:46;;;;;;;2.90;0.73;;;18.10;48.90;;;;;;4880729;29;20701;-66
2021/04/06 11:01:15;;;;;;;1.75;0.80;;;18.00;49.10;;;;;;4882171;29;20262;-66
2021/04/06 11:03:52;;;;;;;3.00;1.08;;;17.90;49.20;;;;;;4896541;29;20172;-67
2021/04/06 11:06:30;;;;;;;3.60;0.73;;;17.80;49.30;;;;;;4851190;29;20180;-69
2021/04/06 11:08:56;;;;;;;2.33;0.90;;;17.80;49.40;;;;;;4881191;29;20173;-66
2021/04/06 11:11:26;;;;;;;2.13;0.93;;;17.80;49.40;;;;;;4873485;29;20231;-67
2021/04/06 11:13:59;;;;;;;1.27;0.70;;;17.80;49.30;;;;;;4880212;29;20185;-66
2021/04/06 11:16:26;;;;;;;1.83;0.80;;;18.00;49.20;;;;;;4895401;29;20181;-66
2021/04/06 11:19:01;;;;;;;1.63;0.75;;;18.10;49.00;;;;;;4895986;29;20172;-66
2021/04/06 11:21:27;;;;;;;2.55;0.80;;;18.30;48.80;;;;;;4895862;29;20176;-67
2021/04/06 11:23:53;;;;;;;1.38;0.80;;;18.20;48.80;;;;;;4895335;29;20672;-67
2021/04/06 11:26:19;;;;;;;2.50;1.00;;;18.20;48.90;;;;;;4895899;29;20187;-66
2021/04/06 11:28:45;;;;;;;2.60;1.10;;;18.20;48.80;;;;;;4896154;29;20177;-66
2021/04/06 11:31:11;;;;;;;4.03;0.80;;;18.30;48.80;;;;;;4895875;29;20219;-65
2021/04/06 11:33:36;;;;;;;2.65;0.85;;;18.40;48.80;;;;;;4895947;29;20173;-63
2021/04/06 11:36:02;;;;;;;2.47;1.00;;;18.40;48.70;;;;;;4895974;29;20292;-68
2021/04/06 11:38:28;;;;;;;1.23;0.75;;;18.40;48.70;;;;;;4895184;29;20183;-65
2021/04/06 11:40:53;;;;;;;2.03;0.68;;;18.40;48.70;;;;;;4897458;29;20176;-64
2021/04/06 11:43:19;;;;;;;2.05;0.68;;;18.30;48.80;;;;;;4897094;29;20184;-65
2021/04/06 11:45:44;;;;;;;1.48;0.73;;;18.20;48.90;;;;;;4895441;29;20267;-68
2021/04/06 11:48:10;;;;;;;2.42;0.90;;;18.10;49.10;;;;;;4895987;29;20180;-67
2021/04/06 11:50:36;;;;;;;2.50;1.00;;;18.00;49.20;;;;;;4879990;29;20212;-64
2021/04/06 11:53:01;;;;;;;1.90;0.80;;;17.90;49.30;;;;;;4897799;29;20172;-68
2021/04/06 11:55:27;;;;;;;2.17;0.70;;;17.90;49.30;;;;;;4899177;29;20177;-64
2021/04/06 11:57:52;;;;;;;1.85;0.93;;;17.80;49.90;;;;;;4889264;29;20637;-63
2021/04/06 12:00:18;;;;;;;1.17;0.82;;;17.80;49.20;;;;;;4868057;29;20181;-65
2021/04/06 12:02:44;;;;;;;2.03;0.82;;;17.80;49.20;;;;;;4883876;29;20176;-64
2021/04/06 12:05:10;;;;;;;1.40;0.80;;;17.70;49.90;;;;;;4891708;29;20192;-65
2021/04/06 12:07:36;;;;;;;1.15;0.90;;;17.70;49.20;;;;;;4879364;29;20177;-65
2021/04/06 12:10:02;;;;;;;1.52;0.70;;;17.70;49.20;;;;;;4862597;29;20201;-64
2021/04/06 12:12:28;;;;;;;2.45;1.00;;;17.70;49.20;;;;;;4899826;29;20208;-64
2021/04/06 12:14:54;;;;;;;1.90;1.02;;;17.80;49.30;;;;;;4917053;29;20648;-64
2021/04/06 12:17:20;;;;;;;1.60;0.90;;;17.90;48.70;;;;;;4914279;29;20180;-65
2021/04/06 12:19:45;;;;;;;0.70;0.70;;;18.10;48.60;;;;;;4900091;29;20181;-66
2021/04/06 12:22:11;;;;;;;1.75;0.63;;;18.20;48.60;;;;;;4910242;29;20180;-65
2021/04/06 12:24:37;;;;;;;1.70;0.85;;;18.20;48.50;;;;;;4893271;29;20173;-67
2021/04/06 12:27:02;;;;;;;1.33;0.73;;;18.30;49.00;;;;;;4882717;29;20172;-66
2021/04/06 12:29:28;;;;;;;0.65;0.45;;;18.30;48.20;;;;;;4908409;29;20288;-64
2021/04/06 12:31:53;;;;;;;2.17;0.80;;;18.30;48.20;;;;;;4913895;29;20184;-64
2021/04/06 12:34:19;;;;;;;0.82;0.60;;;18.30;48.30;;;;;;4883843;29;20634;-65
2021/04/06 12:36:45;;;;;;;1.55;0.70;;;18.40;48.20;;;;;;4901678;29;20177;-72
2021/04/06 12:39:11;;;;;;;4.93;2.03;;;18.40;48.10;;;;;;4893895;29;20219;-66
2021/04/06 12:41:36;;;;;;;4.57;1.63;;;18.40;48.10;;;;;;4882392;29;20176;-66
2021/04/06 12:44:02;;;;;;;4.18;1.80;;;18.40;48.00;;;;;;4899382;29;20180;-65
2021/04/06 12:46:28;;;;;;;6.90;2.40;;;18.60;47.80;;;;;;4910698;29;20651;-68
2021/04/06 12:48:54;;;;;;;6.32;2.42;;;18.80;47.70;;;;;;4900844;29;20180;-69
2021/04/06 12:51:19;;;;;;;5.35;2.17;;;18.90;47.40;;;;;;4914608;29;20231;-66
2021/04/06 12:53:45;;;;;;;4.78;2.10;;;18.90;47.30;;;;;;4882719;29;20637;-68
2021/04/06 12:56:10;;;;;;;3.42;1.63;;;18.70;47.70;;;;;;4898927;29;20633;-68
2021/04/06 12:58:36;;;;;;;3.88;2.20;;;18.40;48.10;;;;;;4882424;29;20192;-67